createdAt,value
2023-04-29T00:01:37.858Z,1.30
2023-04-29T00:04:06.364Z,1.38
2023-04-29T00:06:34.713Z,1.30
2023-04-29T00:09:02.912Z,1.38
2023-04-29T00:11:31.123Z,1.65
2023-04-29T00:13:59.316Z,1.50
2023-04-29T00:16:27.601Z,1.63
2023-04-29T00:18:56.325Z,1.42
2023-04-29T00:21:25.452Z,1.40
2023-04-29T00:23:53.697Z,1.80
2023-04-29T00:26:21.940Z,2.35
2023-04-29T00:28:50.176Z,1.83
2023-04-29T00:31:18.425Z,1.70
2023-04-29T00:33:47.284Z,2.17
2023-04-29T00:36:15.956Z,1.40
2023-04-29T00:38:44.397Z,1.20
2023-04-29T00:41:12.778Z,1.38
2023-04-29T00:43:41.010Z,1.25
2023-04-29T00:46:09.932Z,1.10
2023-04-29T00:48:38.291Z,1.30
2023-04-29T00:51:07.694Z,1.38
2023-04-29T00:53:36.203Z,1.48
2023-04-29T00:56:04.947Z,1.50
2023-04-29T00:58:36.150Z,1.48
2023-04-29T01:01:07.437Z,1.50
2023-04-29T01:03:38.633Z,1.70
2023-04-29T01:06:45.354Z,1.20
2023-04-29T01:09:42.290Z,1.30
2023-04-29T01:12:33.213Z,1.38
2023-04-29T01:15:11.816Z,1.50
2023-04-29T01:17:45.813Z,1.50
2023-04-29T01:20:15.914Z,1.38
2023-04-29T01:22:44.302Z,1.50
2023-04-29T01:25:12.516Z,1.48
2023-04-29T01:28:08.593Z,1.50
2023-04-29T01:30:43.935Z,1.90
2023-04-29T01:33:22.342Z,1.33
2023-04-29T01:36:02.231Z,1.70
2023-04-29T01:38:54.369Z,1.70
2023-04-29T01:41:40.769Z,1.80
2023-04-29T01:44:14.530Z,1.83
2023-04-29T01:46:44.409Z,1.80
2023-04-29T01:49:14.200Z,1.65
2023-04-29T01:51:42.486Z,1.67
2023-04-29T01:54:11.308Z,1.88
2023-04-29T01:56:39.542Z,1.70
2023-04-29T01:59:09.044Z,1.77
2023-04-29T02:01:37.424Z,1.40
2023-04-29T02:04:06.086Z,1.58
2023-04-29T02:06:34.481Z,1.40
2023-04-29T02:09:02.717Z,1.58
2023-04-29T02:11:31.134Z,1.85
2023-04-29T02:13:59.560Z,1.50
2023-04-29T02:16:27.843Z,1.48
2023-04-29T02:18:56.199Z,1.60
2023-04-29T02:21:24.861Z,1.30
2023-04-29T02:23:55.269Z,1.30
2023-04-29T02:26:24.605Z,1.10
2023-04-29T02:28:53.422Z,1.40
2023-04-29T02:31:21.704Z,1.48
2023-04-29T02:33:50.079Z,1.50
2023-04-29T02:36:19.150Z,1.30
2023-04-29T02:38:47.801Z,1.48
2023-04-29T02:41:19.607Z,1.35
2023-04-29T02:43:49.943Z,1.50
2023-04-29T02:46:19.670Z,1.50
2023-04-29T02:48:47.920Z,1.13
2023-04-29T02:51:16.183Z,1.40
2023-04-29T02:53:45.425Z,1.25
2023-04-29T02:56:13.677Z,1.80
2023-04-29T02:58:43.117Z,1.30
2023-04-29T03:01:11.740Z,1.20
2023-04-29T03:03:40.119Z,1.38
2023-04-29T03:06:08.555Z,1.15
2023-04-29T03:08:36.784Z,1.63
2023-04-29T03:11:05.329Z,1.30
2023-04-29T03:13:33.584Z,2.10
2023-04-29T03:16:02.045Z,3.67
2023-04-29T03:18:30.254Z,5.70
2023-04-29T03:20:58.533Z,6.30
2023-04-29T03:23:27.586Z,22.17
2023-04-29T03:25:56.480Z,2.90
2023-04-29T03:28:24.907Z,1.75
2023-04-29T03:30:53.169Z,1.40
2023-04-29T03:33:21.409Z,1.30
2023-04-29T03:35:49.668Z,1.30
2023-04-29T03:38:17.909Z,1.30
2023-04-29T03:40:46.480Z,1.58
2023-04-29T03:43:15.396Z,1.40
2023-04-29T03:45:43.578Z,1.60
2023-04-29T03:48:13.326Z,1.50
2023-04-29T03:50:41.633Z,1.50
2023-04-29T03:53:09.966Z,1.52
2023-04-29T03:55:38.195Z,1.42
2023-04-29T03:58:06.485Z,1.50
2023-04-29T04:00:34.804Z,1.23
2023-04-29T04:03:05.242Z,1.27
2023-04-29T04:05:34.107Z,1.48
2023-04-29T04:08:02.767Z,1.27
2023-04-29T04:10:31.092Z,1.40
2023-04-29T04:12:59.332Z,1.70
2023-04-29T04:15:27.602Z,1.40
2023-04-29T04:17:55.852Z,1.77
2023-04-29T04:20:24.114Z,1.55
2023-04-29T04:22:52.452Z,1.50
2023-04-29T04:25:20.613Z,1.60
2023-04-29T04:27:48.878Z,1.40
2023-04-29T04:30:17.361Z,1.35
2023-04-29T04:32:46.074Z,1.25
2023-04-29T04:35:14.365Z,1.60
2023-04-29T04:37:42.611Z,1.35
2023-04-29T04:40:12.241Z,1.60
2023-04-29T04:42:40.705Z,1.48
2023-04-29T04:45:10.519Z,1.33
2023-04-29T04:47:39.089Z,1.25
2023-04-29T04:50:08.215Z,1.20
2023-04-29T04:52:36.802Z,1.38
2023-04-29T04:55:05.276Z,1.13
2023-04-29T04:57:33.583Z,1.30
2023-04-29T05:00:02.551Z,1.42
2023-04-29T05:02:30.842Z,1.45
2023-04-29T05:04:59.349Z,1.60
2023-04-29T05:07:27.569Z,1.50
2023-04-29T05:09:55.811Z,1.42
2023-04-29T05:12:26.224Z,1.30
2023-04-29T05:14:54.921Z,1.45
2023-04-29T05:17:23.418Z,1.40
2023-04-29T05:19:52.168Z,1.27
2023-04-29T05:22:20.613Z,1.30
2023-04-29T05:24:53.682Z,1.40
2023-04-29T05:27:22.115Z,1.20
2023-04-29T05:29:50.485Z,1.30
2023-04-29T05:32:18.831Z,1.35
2023-04-29T05:34:47.474Z,1.20
2023-04-29T05:37:15.879Z,1.27
2023-04-29T05:39:44.160Z,1.40
2023-04-29T05:42:12.434Z,1.40
2023-04-29T05:44:40.906Z,1.50
2023-04-29T05:47:09.193Z,1.70
2023-04-29T05:49:37.381Z,1.70
2023-04-29T05:52:07.370Z,1.63
2023-04-29T05:54:36.163Z,1.70
2023-04-29T05:57:04.596Z,1.52
2023-04-29T05:59:33.865Z,1.60
2023-04-29T06:02:02.406Z,1.63
2023-04-29T06:04:30.895Z,1.40
2023-04-29T06:06:59.543Z,1.90
2023-04-29T06:09:28.487Z,1.40
2023-04-29T06:11:57.185Z,1.63
2023-04-29T06:14:25.445Z,1.50
2023-04-29T06:16:54.597Z,1.42
2023-04-29T06:19:23.012Z,1.70
2023-04-29T06:21:51.374Z,1.63
2023-04-29T06:24:19.684Z,2.20
2023-04-29T06:26:48.421Z,1.50
2023-04-29T06:29:17.049Z,1.52
2023-04-29T06:31:45.500Z,1.60
2023-04-29T06:34:14.044Z,1.48
2023-04-29T06:36:42.464Z,1.60
2023-04-29T06:39:10.629Z,1.88
2023-04-29T06:41:38.904Z,1.80
2023-04-29T06:44:07.089Z,1.80
2023-04-29T06:46:35.262Z,1.88
2023-04-29T06:49:03.487Z,1.75
2023-04-29T06:51:33.007Z,1.65
2023-04-29T06:54:01.409Z,1.65
2023-04-29T06:56:29.591Z,1.80
2023-04-29T06:58:57.756Z,1.90
2023-04-29T07:01:25.968Z,1.83
2023-04-29T07:03:54.363Z,1.80
2023-04-29T07:06:22.780Z,2.03
2023-04-29T07:08:51.109Z,1.85
2023-04-29T07:11:19.975Z,2.08
2023-04-29T07:13:48.586Z,1.92
2023-04-29T07:16:22.872Z,1.80
2023-04-29T07:18:51.164Z,1.90
2023-04-29T07:21:19.357Z,2.30
2023-04-29T07:23:47.738Z,1.90
2023-04-29T07:26:17.817Z,1.80
2023-04-29T07:28:47.098Z,2.03
2023-04-29T07:31:15.374Z,1.90
2023-04-29T07:33:46.395Z,2.50
2023-04-29T07:36:14.727Z,2.03
2023-04-29T07:38:42.947Z,2.70
2023-04-29T07:41:11.209Z,2.30
2023-04-29T07:43:41.569Z,2.53
2023-04-29T07:46:10.568Z,2.92
2023-04-29T07:48:41.711Z,2.75
2023-04-29T07:51:15.333Z,2.85
2023-04-29T07:53:44.244Z,2.90
2023-04-29T07:56:12.532Z,2.40
2023-04-29T07:58:40.746Z,2.10
2023-04-29T08:01:12.813Z,2.17
2023-04-29T08:03:41.981Z,2.22
2023-04-29T08:06:10.607Z,2.13
2023-04-29T08:08:38.964Z,1.88
2023-04-29T08:11:07.507Z,2.22
2023-04-29T08:13:35.700Z,2.30
2023-04-29T08:16:03.906Z,2.10
2023-04-29T08:18:32.415Z,2.30
2023-04-29T08:21:00.590Z,2.63
2023-04-29T08:23:28.996Z,2.22
2023-04-29T08:25:57.355Z,2.47
2023-04-29T08:28:26.157Z,2.60
2023-04-29T08:30:54.332Z,2.83
2023-04-29T08:33:23.199Z,2.42
2023-04-29T08:36:00.210Z,2.40
2023-04-29T08:38:28.847Z,2.03
2023-04-29T08:40:57.334Z,2.70
2023-04-29T08:43:26.526Z,2.60
2023-04-29T08:45:55.253Z,2.25
2023-04-29T08:48:24.161Z,2.10
2023-04-29T08:50:52.821Z,2.85
2023-04-29T08:53:22.110Z,2.85
2023-04-29T08:55:50.390Z,2.40
2023-04-29T08:58:19.156Z,2.38
2023-04-29T09:00:48.005Z,2.92
2023-04-29T09:03:26.789Z,2.80
2023-04-29T09:05:57.111Z,2.83
2023-04-29T09:08:25.919Z,3.55
2023-04-29T09:10:54.539Z,3.78
2023-04-29T09:13:33.392Z,5.43
2023-04-29T09:16:01.711Z,5.07
2023-04-29T09:18:52.083Z,6.00
2023-04-29T09:21:22.954Z,5.82
2023-04-29T09:23:59.168Z,5.80
2023-04-29T09:26:28.271Z,6.40
2023-04-29T09:29:16.993Z,5.50
2023-04-29T09:31:46.602Z,6.13
2023-04-29T09:34:15.864Z,5.47
2023-04-29T09:36:47.513Z,5.28
2023-04-29T09:39:23.289Z,4.85
2023-04-29T09:41:54.591Z,5.20
2023-04-29T09:44:29.183Z,5.25
2023-04-29T09:47:03.755Z,5.10
2023-04-29T09:49:39.202Z,5.45
2023-04-29T09:52:10.402Z,4.85
2023-04-29T09:54:40.607Z,4.75
2023-04-29T09:57:11.036Z,5.45
2023-04-29T09:59:41.563Z,5.13
2023-04-29T10:02:12.686Z,5.05
2023-04-29T10:04:43.595Z,5.22
2023-04-29T10:07:16.579Z,5.40
2023-04-29T10:09:47.609Z,5.50
2023-04-29T10:12:22.455Z,6.03
2023-04-29T10:15:05.763Z,6.68
2023-04-29T10:17:48.559Z,6.57
2023-04-29T10:20:24.216Z,6.63
2023-04-29T10:22:55.579Z,7.43
2023-04-29T10:25:25.502Z,7.32
2023-04-29T10:27:56.789Z,6.65
2023-04-29T10:30:25.083Z,7.35
2023-04-29T10:32:53.474Z,7.85
2023-04-29T10:35:26.255Z,7.93
2023-04-29T10:37:56.085Z,7.85
2023-04-29T10:40:43.666Z,7.80
2023-04-29T10:43:11.963Z,7.40
2023-04-29T10:45:40.624Z,8.02
2023-04-29T10:48:16.070Z,8.00
2023-04-29T10:50:50.205Z,7.93
2023-04-29T10:53:20.359Z,8.38
2023-04-29T10:55:49.943Z,7.90
2023-04-29T10:58:47.269Z,8.27
2023-04-29T11:01:17.532Z,8.68
2023-04-29T11:04:01.375Z,8.20
2023-04-29T11:06:38.575Z,9.40
2023-04-29T11:09:26.484Z,8.68
2023-04-29T11:12:01.423Z,10.45
2023-04-29T11:14:52.038Z,9.73
2023-04-29T11:17:21.573Z,11.35
2023-04-29T11:19:53.257Z,10.10
2023-04-29T11:22:25.015Z,10.32
2023-04-29T11:25:03.798Z,10.15
2023-04-29T11:27:43.966Z,9.80
2023-04-29T11:30:13.457Z,9.30
2023-04-29T11:32:43.710Z,9.43
2023-04-29T11:35:16.761Z,10.40
2023-04-29T11:37:46.515Z,10.75
2023-04-29T11:40:15.891Z,9.60
2023-04-29T11:42:49.518Z,8.90
2023-04-29T11:45:21.459Z,9.43
2023-04-29T11:47:52.081Z,9.52
2023-04-29T11:50:21.650Z,9.60
2023-04-29T11:52:50.804Z,10.13
2023-04-29T11:55:20.602Z,9.23
2023-04-29T11:57:53.076Z,9.00
2023-04-29T12:00:21.578Z,9.18
2023-04-29T12:02:49.898Z,9.02
2023-04-29T12:05:19.978Z,9.25
2023-04-29T12:07:51.945Z,9.32
2023-04-29T12:10:20.251Z,9.32
2023-04-29T12:12:49.701Z,8.35
2023-04-29T12:15:18.187Z,8.57
2023-04-29T12:17:47.502Z,8.18
2023-04-29T12:20:16.266Z,8.90
2023-04-29T12:22:44.800Z,9.63
2023-04-29T12:25:13.312Z,9.45
2023-04-29T12:27:45.736Z,9.05
2023-04-29T12:30:14.138Z,8.73
2023-04-29T12:32:42.655Z,8.75
2023-04-29T12:35:19.525Z,8.52
2023-04-29T12:37:53.673Z,7.85
2023-04-29T12:40:21.975Z,8.63
2023-04-29T12:42:50.337Z,8.95
2023-04-29T12:45:33.009Z,9.05
2023-04-29T12:48:05.655Z,9.05
2023-04-29T12:50:39.595Z,9.25
2023-04-29T12:53:09.554Z,9.05
2023-04-29T12:55:39.392Z,9.20
2023-04-29T12:58:08.288Z,9.30
2023-04-29T13:00:38.313Z,9.48
2023-04-29T13:03:06.924Z,9.40
2023-04-29T13:05:35.565Z,9.40
2023-04-29T13:08:04.217Z,9.88
2023-04-29T13:10:32.553Z,9.65
2023-04-29T13:13:01.111Z,9.23
2023-04-29T13:15:29.397Z,9.35
2023-04-29T13:17:59.474Z,10.32
2023-04-29T13:20:27.848Z,10.02
2023-04-29T13:22:56.005Z,10.30
2023-04-29T13:25:24.201Z,9.30
2023-04-29T13:27:52.524Z,8.73
2023-04-29T13:30:20.797Z,9.63
2023-04-29T13:32:54.905Z,9.25
2023-04-29T13:35:24.861Z,9.18
2023-04-29T13:37:53.259Z,8.52
2023-04-29T13:40:21.787Z,9.15
2023-04-29T13:42:56.902Z,9.38
2023-04-29T13:45:32.459Z,8.90
2023-04-29T13:48:07.522Z,8.98
2023-04-29T13:58:56.016Z,9.65
2023-04-29T14:03:35.949Z,9.15
2023-04-29T14:06:04.586Z,10.15
2023-04-29T14:08:32.783Z,9.82
2023-04-29T14:11:01.603Z,10.45
2023-04-29T14:13:30.349Z,9.60
2023-04-29T14:16:00.576Z,9.00
2023-04-29T14:18:30.937Z,9.65
2023-04-29T14:21:00.502Z,9.18
2023-04-29T14:23:28.762Z,10.27
2023-04-29T14:26:16.512Z,9.90
2023-04-29T14:28:45.696Z,9.57
2023-04-29T14:31:14.544Z,10.00
2023-04-29T14:33:42.828Z,10.30
2023-04-29T14:36:11.143Z,10.27
2023-04-29T14:38:39.351Z,9.82
2023-04-29T14:41:07.984Z,8.70
2023-04-29T14:43:37.092Z,9.27
2023-04-29T14:46:05.435Z,8.73
2023-04-29T14:48:34.029Z,8.70
2023-04-29T14:51:02.227Z,8.02
2023-04-29T14:53:30.433Z,8.80
2023-04-29T14:55:58.767Z,8.27
2023-04-29T14:58:27.000Z,8.32
2023-04-29T15:00:55.247Z,7.80
2023-04-29T15:03:24.313Z,8.27
2023-04-29T15:05:53.162Z,8.93
2023-04-29T15:08:21.640Z,8.52
2023-04-29T15:10:50.499Z,8.10
2023-04-29T15:13:18.708Z,8.15
2023-04-29T15:15:47.517Z,8.95
2023-04-29T15:18:15.773Z,8.88
2023-04-29T15:20:43.970Z,7.82
2023-04-29T15:23:12.379Z,8.23
2023-04-29T15:25:40.628Z,8.20
2023-04-29T15:28:09.010Z,8.25
2023-04-29T15:30:37.337Z,8.40
2023-04-29T15:33:07.594Z,7.80
2023-04-29T15:35:37.395Z,7.82
2023-04-29T15:38:05.630Z,8.35
2023-04-29T15:40:33.889Z,7.75
2023-04-29T15:43:02.302Z,7.80
2023-04-29T15:45:30.527Z,7.70
2023-04-29T15:47:58.937Z,9.35
2023-04-29T15:50:27.297Z,8.30
2023-04-29T15:52:56.823Z,8.35
2023-04-29T15:55:25.029Z,7.63
2023-04-29T15:57:53.257Z,8.73
2023-04-29T16:00:21.548Z,7.63
2023-04-29T16:02:50.050Z,7.60
2023-04-29T16:05:18.382Z,7.65
2023-04-29T16:07:46.912Z,7.93
2023-04-29T16:10:15.250Z,8.32
2023-04-29T16:12:43.970Z,7.18
2023-04-29T16:15:12.508Z,8.30
2023-04-29T16:17:40.845Z,8.35
2023-04-29T16:20:09.830Z,8.80
2023-04-29T16:22:38.085Z,8.25
2023-04-29T16:25:06.725Z,8.15
2023-04-29T16:27:34.972Z,7.88
2023-04-29T16:30:03.397Z,8.68
2023-04-29T16:32:32.275Z,8.18
2023-04-29T16:35:01.497Z,8.60
2023-04-29T16:37:30.363Z,7.85
2023-04-29T16:39:59.087Z,8.35
2023-04-29T16:42:27.387Z,8.40
2023-04-29T16:44:55.583Z,7.60
2023-04-29T16:47:24.966Z,8.05
2023-04-29T16:49:53.506Z,7.75
2023-04-29T16:52:22.509Z,7.20
2023-04-29T16:54:50.720Z,7.18
2023-04-29T16:57:18.934Z,7.00
2023-04-29T16:59:47.497Z,8.30
2023-04-29T17:02:15.681Z,8.80
2023-04-29T17:04:44.271Z,7.90
2023-04-29T17:07:14.847Z,45.78
2023-04-29T17:09:43.054Z,8.18
2023-04-29T17:12:11.353Z,7.70
2023-04-29T17:14:40.820Z,8.38
2023-04-29T17:17:09.083Z,7.88
2023-04-29T17:19:37.287Z,6.97
2023-04-29T17:22:05.869Z,6.95
2023-04-29T17:24:34.642Z,6.82
2023-04-29T17:27:02.884Z,6.80
2023-04-29T17:29:31.106Z,7.65
2023-04-29T17:32:00.968Z,7.15
2023-04-29T17:34:31.791Z,6.93
2023-04-29T17:36:59.999Z,6.93
2023-04-29T17:39:28.234Z,6.70
2023-04-29T17:41:56.549Z,6.68
2023-04-29T17:44:24.781Z,6.90
2023-04-29T17:46:53.060Z,6.85
2023-04-29T17:49:21.450Z,6.03
2023-04-29T17:51:49.677Z,6.97
2023-04-29T17:54:17.937Z,7.13
2023-04-29T17:56:46.395Z,6.93
2023-04-29T17:59:14.590Z,6.65
2023-04-29T18:01:43.385Z,6.40
2023-04-29T18:04:11.782Z,6.43
2023-04-29T18:06:40.141Z,5.97
2023-04-29T18:09:08.579Z,5.55
2023-04-29T18:11:36.844Z,6.05
2023-04-29T18:14:05.689Z,5.90
2023-04-29T18:16:34.146Z,6.38
2023-04-29T18:19:02.457Z,5.95
2023-04-29T18:21:30.699Z,6.20
2023-04-29T18:23:59.178Z,6.03
2023-04-29T18:26:27.720Z,5.18
2023-04-29T18:28:55.965Z,5.60
2023-04-29T18:31:26.012Z,5.43
2023-04-29T18:33:54.513Z,5.10
2023-04-29T18:36:24.469Z,4.57
2023-04-29T18:38:52.922Z,3.95
2023-04-29T18:41:21.151Z,4.80
2023-04-29T18:43:49.402Z,4.47
2023-04-29T18:46:18.061Z,4.30
2023-04-29T18:48:46.338Z,4.22
2023-04-29T18:51:14.631Z,3.70
2023-04-29T18:53:42.972Z,4.57
2023-04-29T18:56:11.287Z,3.85
2023-04-29T18:58:39.553Z,3.40
2023-04-29T19:01:07.933Z,3.63
2023-04-29T19:03:36.678Z,3.97
2023-04-29T19:06:04.993Z,3.20
2023-04-29T19:08:33.265Z,3.72
2023-04-29T19:11:01.590Z,3.38
2023-04-29T19:13:30.208Z,3.20
2023-04-29T19:15:58.570Z,3.10
2023-04-29T19:18:27.248Z,2.80
2023-04-29T19:20:56.867Z,2.72
2023-04-29T19:23:25.095Z,2.20
2023-04-29T19:25:53.343Z,2.20
2023-04-29T19:28:21.670Z,2.40
2023-04-29T19:30:50.049Z,2.60
2023-04-29T19:33:18.296Z,2.28
2023-04-29T19:35:47.137Z,2.25
2023-04-29T19:38:15.378Z,2.13
2023-04-29T19:40:43.591Z,2.80
2023-04-29T19:43:11.889Z,2.10
2023-04-29T19:45:40.408Z,2.35
2023-04-29T19:48:08.675Z,2.40
2023-04-29T19:50:36.885Z,2.40
2023-04-29T19:53:05.067Z,2.83
2023-04-29T19:55:34.591Z,2.70
2023-04-29T19:58:02.920Z,3.03
2023-04-29T20:00:31.916Z,3.10
2023-04-29T20:03:00.321Z,3.35
2023-04-29T20:05:29.248Z,2.83
2023-04-29T20:07:57.818Z,2.90
2023-04-29T20:10:28.991Z,3.05
2023-04-29T20:12:58.385Z,3.55
2023-04-29T20:15:27.117Z,3.85
2023-04-29T20:17:56.474Z,3.28
2023-04-29T20:20:25.862Z,3.28
2023-04-29T20:22:58.756Z,3.50
2023-04-29T20:25:27.875Z,3.85
2023-04-29T20:27:56.285Z,3.90
2023-04-29T20:30:24.911Z,4.63
2023-04-29T20:32:53.435Z,3.58
2023-04-29T20:35:22.138Z,4.03
2023-04-29T20:37:50.548Z,4.80
2023-04-29T20:40:19.289Z,4.32
2023-04-29T20:42:48.078Z,4.03
2023-04-29T20:45:16.708Z,3.88
2023-04-29T20:47:45.290Z,4.90
2023-04-29T20:50:13.915Z,4.40
2023-04-29T20:52:42.489Z,4.47
2023-04-29T20:55:11.240Z,4.28
2023-04-29T20:57:40.444Z,4.00
2023-04-29T21:00:10.447Z,5.00
2023-04-29T21:02:38.664Z,4.82
2023-04-29T21:05:07.279Z,4.13
2023-04-29T21:07:35.505Z,5.15
2023-04-29T21:10:03.886Z,4.53
2023-04-29T21:12:32.159Z,5.07
2023-04-29T21:15:00.363Z,4.80
2023-04-29T21:17:28.633Z,4.63
2023-04-29T21:19:57.573Z,4.90
2023-04-29T21:22:25.844Z,4.63
2023-04-29T21:24:54.046Z,4.43
2023-04-29T21:27:22.522Z,3.65
2023-04-29T21:29:50.715Z,4.10
2023-04-29T21:32:22.365Z,4.32
2023-04-29T21:34:50.861Z,4.80
2023-04-29T21:37:19.138Z,4.00
2023-04-29T21:39:47.774Z,3.83
2023-04-29T21:42:21.955Z,3.30
2023-04-29T21:47:18.140Z,4.10
2023-04-29T21:49:46.516Z,3.97
2023-04-29T21:52:14.708Z,3.13
2023-04-29T21:54:42.899Z,3.38
2023-04-29T21:57:11.262Z,3.85
2023-04-29T21:59:39.601Z,3.80
2023-04-29T22:02:23.177Z,3.88
2023-04-29T22:04:55.068Z,3.73
2023-04-29T22:07:24.118Z,3.70
2023-04-29T22:09:52.695Z,3.85
2023-04-29T22:12:21.859Z,3.22
2023-04-29T22:14:50.152Z,3.38
2023-04-29T22:17:18.360Z,3.25
2023-04-29T22:19:46.847Z,3.20
2023-04-29T22:22:15.222Z,3.25
2023-04-29T22:24:43.425Z,3.25
2023-04-29T22:27:11.621Z,3.00
2023-04-29T22:29:40.426Z,3.05
2023-04-29T22:32:09.042Z,2.90
2023-04-29T22:34:37.646Z,2.47
2023-04-29T22:37:05.891Z,2.35
2023-04-29T22:39:34.212Z,2.63
2023-04-29T22:42:05.459Z,2.08
2023-04-29T22:44:33.811Z,2.17
2023-04-29T22:47:02.613Z,2.00
2023-04-29T22:49:30.775Z,2.22
2023-04-29T22:51:59.014Z,2.00
2023-04-29T22:54:27.344Z,2.03
2023-04-29T22:56:55.513Z,2.08
2023-04-29T22:59:23.742Z,2.03
2023-04-29T23:01:52.565Z,1.75
2023-04-29T23:04:21.354Z,2.00
2023-04-29T23:06:49.681Z,1.95
2023-04-29T23:09:18.028Z,1.88
2023-04-29T23:11:46.368Z,2.28
2023-04-29T23:14:14.571Z,2.00
2023-04-29T23:16:42.793Z,2.30
2023-04-29T23:19:11.142Z,1.83
2023-04-29T23:21:39.402Z,1.70
2023-04-29T23:24:07.695Z,1.63
2023-04-29T23:26:35.885Z,1.88
2023-04-29T23:29:04.070Z,1.73
2023-04-29T23:31:32.296Z,2.00
2023-04-29T23:34:00.852Z,2.10
2023-04-29T23:36:29.081Z,1.90
2023-04-29T23:38:57.299Z,2.20
2023-04-29T23:41:25.535Z,1.80
2023-04-29T23:43:54.165Z,1.60
2023-04-29T23:46:22.458Z,1.98
2023-04-29T23:48:50.744Z,1.70
2023-04-29T23:51:18.942Z,1.63
2023-04-29T23:53:47.515Z,1.77
2023-04-29T23:56:15.699Z,1.90
2023-04-29T23:58:43.913Z,1.90
